Time;durP1;ratioP1;P1;durP2;ratioP2;P2;SDS_P1;SDS_P2;PMS_P1;PMS_P2;Temp;Humidity;BMP_temperature;BMP_pressure;BME280_temperature;BME280_humidity;BME280_pressure;Samples;Min_cycle;Max_cycle;Signal;HPM_P1;HPM_P2
2022/08/06 00:01:52;;;;;;;;;3.50;3.00;;;;;20.89;36.40;101853.09;4865157;29;45352;-53
2022/08/06 00:04:17;;;;;;;;;1.50;1.50;;;;;20.94;36.51;101855.13;4881535;29;45391;-55
2022/08/06 00:06:43;;;;;;;;;3.25;2.25;;;;;20.93;36.40;101857.09;4864852;29;45886;-52
2022/08/06 00:09:08;;;;;;;;;9.75;8.00;;;;;21.00;36.50;101865.28;4865165;29;45449;-52
2022/08/06 00:11:34;;;;;;;;;2.00;2.00;;;;;21.06;36.39;101857.81;4881712;29;45558;-53
2022/08/06 00:13:59;;;;;;;;;1.50;1.50;;;;;20.99;36.52;101853.25;4864941;29;46106;-55
2022/08/06 00:16:25;;;;;;;;;2.00;2.00;;;;;20.96;36.71;101859.34;4881633;29;45387;-52
2022/08/06 00:18:50;;;;;;;;;1.50;1.50;;;;;20.87;36.68;101860.03;4864685;29;45426;-52
2022/08/06 00:21:16;;;;;;;;;2.00;2.00;;;;;20.85;37.09;101857.50;4881533;29;45299;-54
2022/08/06 00:23:41;;;;;;;;;3.00;2.50;;;;;20.73;36.83;101865.94;4881421;29;45404;-55
2022/08/06 00:26:07;;;;;;;;;22.75;17.00;;;;;20.84;37.28;101859.47;4881419;29;45453;-52
2022/08/06 00:28:32;;;;;;;;;4.00;4.00;;;;;20.79;37.01;101861.28;4881342;29;45416;-54
2022/08/06 00:31:02;;;;;;;;;4.25;3.25;;;;;20.61;36.93;101823.34;4864814;29;45601;-51
2022/08/06 00:33:28;;;;;;;;;3.80;2.00;;;;;20.71;37.13;101851.41;4864768;29;46938;-54
2022/08/06 00:35:54;;;;;;;;;6.00;5.25;;;;;20.47;37.41;101820.03;4880395;29;45351;-50
2022/08/06 00:38:19;;;;;;;;;5.00;3.25;;;;;20.77;37.01;101855.13;4836730;29;45910;-53
2022/08/06 00:40:44;;;;;;;;;6.00;4.00;;;;;20.56;37.51;101833.28;4862401;29;45304;-56
2022/08/06 00:43:10;;;;;;;;;5.00;5.00;;;;;20.66;37.61;101831.78;4845487;29;46462;-51
2022/08/06 00:45:35;;;;;;;;;4.50;4.00;;;;;20.89;37.16;101861.47;4862222;29;45341;-56
2022/08/06 00:48:01;;;;;;;;;3.00;3.00;;;;;20.89;37.04;101861.47;4862241;29;45414;-53
2022/08/06 00:50:27;;;;;;;;;2.50;2.50;;;;;20.87;37.03;101858.13;4862749;29;45371;-53
2022/08/06 00:52:52;;;;;;;;;4.00;4.00;;;;;20.78;37.25;101842.84;4862042;29;45991;-54
2022/08/06 00:55:19;;;;;;;;;4.25;3.25;;;;;20.94;36.84;101863.50;4862223;29;45396;-54
2022/08/06 00:57:45;;;;;;;;;3.20;3.20;;;;;20.89;36.93;101867.06;4862322;29;45435;-55
2022/08/06 01:00:11;;;;;;;;;3.00;3.00;;;;;20.88;37.11;101875.69;4862515;29;45335;-54
2022/08/06 01:02:36;;;;;;;;;5.00;3.00;;;;;20.74;37.29;101841.69;4845283;29;45583;-55
2022/08/06 01:05:02;;;;;;;;;2.75;2.25;;;;;20.89;37.16;101872.63;4862102;29;45383;-52
2022/08/06 01:07:27;;;;;;;;;2.00;2.00;;;;;20.89;36.98;101863.41;4867230;29;45401;-53
2022/08/06 01:09:52;;;;;;;;;1.50;1.50;;;;;20.72;37.31;101844.72;4881180;29;45287;-55
2022/08/06 01:12:18;;;;;;;;;4.00;2.00;;;;;20.71;37.37;101868.13;4880839;29;46533;-54
2022/08/06 01:14:43;;;;;;;;;4.50;3.50;;;;;20.49;37.48;101851.31;4848695;29;45246;-53
2022/08/06 01:17:17;;;;;;;;;3.25;2.25;;;;;20.45;38.23;101851.78;4863824;29;45422;-56
2022/08/06 01:19:47;;;;;;;;;1.80;1.80;;;;;20.35;38.23;101839.63;4881103;29;45437;-54
2022/08/06 01:22:51;;;;;;;;;2.80;2.20;;;;;20.57;37.89;101879.63;4863997;29;45666;-54
2022/08/06 01:25:50;;;;;;;;;2.80;1.20;;;;;20.45;38.41;101879.69;4880855;29;45462;-55
2022/08/06 01:28:25;;;;;;;;;1.60;1.60;;;;;20.30;38.06;101855.19;4880586;29;45208;-55
2022/08/06 01:31:07;;;;;;;;;1.60;1.60;;;;;20.38;37.95;101875.38;4864059;29;45444;-52
2022/08/06 01:33:36;;;;;;;;;2.60;1.40;;;;;20.46;38.23;101874.97;4848228;29;45511;-52
2022/08/06 01:36:05;;;;;;;;;0.80;0.80;;;;;20.45;38.23;101876.06;4864094;29;45386;-51
2022/08/06 01:38:49;;;;;;;;;1.20;1.20;;;;;20.39;38.40;101882.63;4839370;29;45639;-52
2022/08/06 01:41:38;;;;;;;;;0.00;0.00;;;;;20.24;38.94;101883.19;4863795;29;45617;-55
2022/08/06 01:44:02;;;;;;;;;0.40;0.40;;;;;20.28;38.35;101859.31;4853531;29;46014;-54
2022/08/06 01:46:28;;;;;;;;;3.60;3.00;;;;;20.23;38.82;101864.78;4862488;29;45431;-55
2022/08/06 01:48:55;;;;;;;;;3.00;1.50;;;;;20.25;38.72;101866.22;4880546;29;45221;-56
2022/08/06 01:51:20;;;;;;;;;2.40;2.40;;;;;20.30;39.03;101883.06;4863750;29;45497;-54
2022/08/06 01:53:46;;;;;;;;;1.50;0.50;;;;;20.15;38.93;101878.03;4847528;29;45556;-52
2022/08/06 01:56:11;;;;;;;;;0.50;0.50;;;;;20.16;38.92;101881.66;4880312;29;45376;-54
2022/08/06 01:58:38;;;;;;;;;1.50;1.50;;;;;19.87;39.24;101851.84;4863353;29;45420;-53
2022/08/06 02:01:06;;;;;;;;;1.20;0.60;;;;;19.96;39.64;101874.56;4880365;29;45533;-54
2022/08/06 02:03:43;;;;;;;;;0.60;0.60;;;;;19.95;39.36;101860.88;4863023;29;46655;-54
2022/08/06 02:06:08;;;;;;;;;0.60;0.60;;;;;20.08;39.06;101888.47;4863181;29;45362;-54
2022/08/06 02:08:34;;;;;;;;;2.75;1.50;;;;;20.03;39.35;101866.09;4844117;29;45254;-53
2022/08/06 02:11:00;;;;;;;;;0.60;0.60;;;;;20.10;39.28;101882.63;4845188;29;45518;-52
2022/08/06 02:13:25;;;;;;;;;0.25;0.25;;;;;19.92;39.86;101876.97;4860064;29;45678;-51
2022/08/06 02:15:51;;;;;;;;;1.00;1.00;;;;;19.92;39.47;101884.50;4861207;29;45250;-51
2022/08/06 02:18:17;;;;;;;;;2.25;0.50;;;;;19.92;40.00;101876.97;4861411;29;45181;-52
2022/08/06 02:20:45;;;;;;;;;0.60;0.60;;;;;19.80;40.06;101878.97;4861350;29;45609;-53
2022/08/06 02:23:13;;;;;;;;;3.00;1.40;;;;;19.63;39.89;101851.91;4844341;29;45962;-52
2022/08/06 02:25:39;;;;;;;;;1.40;1.00;;;;;19.75;40.40;101873.31;4844634;29;45380;-52
2022/08/06 02:28:05;;;;;;;;;1.00;1.00;;;;;19.80;40.22;101880.91;4844504;29;45391;-55
2022/08/06 02:30:35;;;;;;;;;2.75;1.75;;;;;19.72;40.38;101876.56;4844878;29;45418;-53
2022/08/06 02:33:01;;;;;;;;;3.80;2.00;;;;;19.69;40.22;101877.91;4844309;29;46875;-55
2022/08/06 02:35:27;;;;;;;;;3.00;2.00;;;;;19.51;40.51;101878.91;4844334;29;45448;-55
2022/08/06 02:37:56;;;;;;;;;2.00;2.00;;;;;19.65;40.33;101885.06;4844557;29;45348;-56
2022/08/06 02:40:24;;;;;;;;;2.00;2.00;;;;;19.64;40.04;101866.69;4845223;29;45263;-54
2022/08/06 02:43:16;;;;;;;;;2.00;2.00;;;;;19.75;40.00;101881.66;4844372;29;46885;-55
2022/08/06 02:45:45;;;;;;;;;3.80;1.80;;;;;19.69;40.07;101877.06;4844917;29;45394;-53
2022/08/06 02:48:26;;;;;;;;;1.60;0.80;;;;;19.71;40.25;101878.53;4844549;29;45288;-53
2022/08/06 02:50:51;;;;;;;;;1.80;1.80;;;;;19.61;39.88;101869.94;4844492;29;45262;-55
2022/08/06 02:53:19;;;;;;;;;2.50;2.50;;;;;19.48;40.47;101848.81;4843907;29;45939;-56
2022/08/06 02:55:46;;;;;;;;;1.40;0.80;;;;;19.47;40.33;101863.78;4844196;29;45440;-55
2022/08/06 02:58:21;;;;;;;;;2.40;1.00;;;;;19.10;39.94;101785.09;4845529;29;45327;-52
2022/08/06 03:00:47;;;;;;;;;1.60;1.60;;;;;19.49;39.70;101853.28;4847055;29;45778;-54
2022/08/06 03:03:13;;;;;;;;;2.50;2.50;;;;;19.57;39.93;101863.16;4846640;29;45456;-55
2022/08/06 03:05:39;;;;;;;;;3.00;3.00;;;;;19.62;40.12;101877.19;4847119;29;45415;-52
2022/08/06 03:08:06;;;;;;;;;2.00;2.00;;;;;19.49;40.47;101869.97;4856694;29;45373;-55
2022/08/06 03:10:31;;;;;;;;;1.80;1.40;;;;;19.30;40.47;101852.56;4865751;29;45705;-52
2022/08/06 03:12:57;;;;;;;;;4.00;3.00;;;;;19.42;40.32;101866.47;4865523;29;45912;-53
2022/08/06 03:15:23;;;;;;;;;3.00;3.00;;;;;19.16;40.79;101857.56;4865729;29;45375;-56
2022/08/06 03:17:48;;;;;;;;;4.60;2.80;;;;;19.11;40.92;101863.84;4850006;29;45795;-54
2022/08/06 03:20:18;;;;;;;;;5.75;4.00;;;;;19.25;40.86;101864.44;4865783;29;45547;-52
2022/08/06 03:22:44;;;;;;;;;6.00;3.80;;;;;19.23;40.58;101852.69;4865728;29;45648;-53
2022/08/06 03:25:10;;;;;;;;;3.80;2.60;;;;;19.32;40.87;101865.13;4864957;29;45431;-54
2022/08/06 03:27:36;;;;;;;;;3.25;3.25;;;;;19.14;41.12;101857.78;4849838;29;45251;-53
2022/08/06 03:30:02;;;;;;;;;4.00;3.00;;;;;19.05;41.10;101862.88;4850218;29;45430;-54
2022/08/06 03:32:27;;;;;;;;;4.00;4.00;;;;;18.85;41.21;101834.53;4849517;29;46051;-53
2022/08/06 03:34:53;;;;;;;;;5.75;5.00;;;;;18.92;41.47;101863.94;4882466;29;45388;-51
2022/08/06 03:37:19;;;;;;;;;3.00;3.00;;;;;18.87;41.22;101868.50;4849814;29;45269;-52
2022/08/06 03:39:44;;;;;;;;;4.00;4.00;;;;;18.86;41.37;101864.91;4850006;29;45837;-55
2022/08/06 03:42:10;;;;;;;;;4.50;3.25;;;;;18.92;41.38;101872.28;4864897;29;45786;-55
2022/08/06 03:44:36;;;;;;;;;5.00;3.75;;;;;18.77;41.37;101858.84;4872146;29;45713;-53
2022/08/06 03:47:06;;;;;;;;;4.25;4.00;;;;;18.77;41.67;101869.09;4867269;29;45882;-53
2022/08/06 03:49:53;;;;;;;;;3.80;3.80;;;;;18.71;41.27;101865.34;4865133;29;45246;-50
2022/08/06 03:52:29;;;;;;;;;5.00;4.60;;;;;18.63;41.31;101866.53;4865066;29;45751;-50
2022/08/06 03:54:58;;;;;;;;;6.00;3.80;;;;;18.49;41.78;101854.81;4849577;29;45392;-52
2022/08/06 03:57:25;;;;;;;;;5.40;5.00;;;;;18.60;41.78;101855.06;4849616;29;45468;-54
2022/08/06 03:59:53;;;;;;;;;3.00;3.00;;;;;18.47;41.65;101845.00;4849614;29;45379;-55
2022/08/06 04:02:18;;;;;;;;;2.80;2.00;;;;;18.55;41.85;101862.19;4864855;29;46567;-54
2022/08/06 04:04:44;;;;;;;;;2.00;2.00;;;;;18.51;42.05;101857.34;4881267;29;45445;-54
2022/08/06 04:07:09;;;;;;;;;1.25;1.25;;;;;18.47;41.98;101864.47;4865028;29;45449;-53
2022/08/06 04:09:35;;;;;;;;;2.75;2.25;;;;;18.47;41.77;101868.06;4880617;29;45466;-53
2022/08/06 04:12:01;;;;;;;;;1.00;1.00;;;;;18.45;42.01;101870.25;4849693;29;46062;-54
2022/08/06 04:14:26;;;;;;;;;1.60;1.60;;;;;18.36;41.91;101852.25;4864595;29;45553;-52
2022/08/06 04:16:52;;;;;;;;;2.00;2.00;;;;;18.46;41.92;101880.28;4881986;29;45222;-53
2022/08/06 04:19:18;;;;;;;;;1.50;1.00;;;;;18.40;42.07;101878.44;4865289;29;45478;-55
2022/08/06 04:21:47;;;;;;;;;2.20;1.00;;;;;18.44;41.80;101871.34;4849222;29;45685;-55
2022/08/06 04:24:13;;;;;;;;;2.00;1.00;;;;;18.31;41.97;101864.06;4864744;29;45326;-53
2022/08/06 04:26:39;;;;;;;;;1.00;1.00;;;;;18.35;41.77;101886.69;4864847;29;45373;-52
2022/08/06 04:29:05;;;;;;;;;1.00;1.00;;;;;18.37;41.92;101890.06;4849171;29;45535;-55
2022/08/06 04:31:30;;;;;;;;;1.60;1.60;;;;;18.31;41.62;101869.63;4881388;29;45673;-54
2022/08/06 04:33:56;;;;;;;;;1.75;0.50;;;;;18.37;41.60;101879.78;4848970;29;45539;-56
2022/08/06 04:36:21;;;;;;;;;1.25;1.25;;;;;18.38;41.73;101880.63;4849646;29;45425;-51
2022/08/06 04:38:47;;;;;;;;;1.75;1.75;;;;;18.50;41.50;101895.41;4864480;29;45486;-51
2022/08/06 04:41:12;;;;;;;;;0.25;0.25;;;;;18.45;41.25;101892.50;4864566;29;45464;-52
2022/08/06 04:43:38;;;;;;;;;0.25;0.25;;;;;18.51;41.53;101897.09;4849192;29;45401;-52
2022/08/06 04:46:03;;;;;;;;;2.00;1.00;;;;;18.51;41.43;101915.72;4881270;29;45434;-54
2022/08/06 04:48:29;;;;;;;;;1.00;1.00;;;;;18.37;41.69;101903.94;4836255;29;45593;-52
2022/08/06 04:50:54;;;;;;;;;2.00;1.00;;;;;18.50;41.56;101908.44;4881276;29;45394;-55
2022/08/06 04:53:20;;;;;;;;;1.75;1.75;;;;;18.52;41.36;101915.47;4864595;29;45466;-52
2022/08/06 04:55:46;;;;;;;;;2.50;2.50;;;;;18.58;41.32;101912.84;4864157;29;45367;-51
2022/08/06 04:58:13;;;;;;;;;2.25;2.25;;;;;18.54;41.30;101918.88;4881437;29;45478;-56
2022/08/06 05:00:43;;;;;;;;;1.40;1.40;;;;;18.50;41.26;101923.22;4864057;29;46558;-54
2022/08/06 05:03:08;;;;;;;;;2.60;1.80;;;;;18.41;41.34;101919.09;4864248;29;45451;-54
2022/08/06 05:05:37;;;;;;;;;1.00;1.00;;;;;18.27;42.06;101918.41;4881281;29;45265;-56
2022/08/06 05:08:03;;;;;;;;;1.00;1.00;;;;;18.41;41.56;101921.88;4849125;29;46004;-55
2022/08/06 05:11:01;;;;;;;;;2.00;2.00;;;;;18.42;41.63;101931.91;4880357;29;45749;-54
2022/08/06 05:13:29;;;;;;;;;0.80;0.80;;;;;18.49;41.35;101932.63;4880025;29;45440;-55
2022/08/06 05:15:56;;;;;;;;;0.00;0.00;;;;;18.52;41.10;101932.16;4848647;29;45254;-54
2022/08/06 05:18:29;;;;;;;;;1.00;1.00;;;;;18.25;41.45;101893.63;4848560;29;45599;-52
2022/08/06 05:20:55;;;;;;;;;1.00;1.00;;;;;18.25;40.95;101903.91;4864135;29;45406;-55
2022/08/06 05:23:30;;;;;;;;;0.00;0.00;;;;;18.34;41.22;101912.75;4848379;29;45464;-52
2022/08/06 05:25:55;;;;;;;;;2.00;1.40;;;;;18.33;41.14;101938.84;4849607;29;45330;-52
2022/08/06 05:28:21;;;;;;;;;1.00;1.00;;;;;18.20;41.68;101935.16;4848518;29;45548;-52
2022/08/06 05:30:48;;;;;;;;;0.50;0.50;;;;;18.22;41.61;101940.50;4880156;29;45825;-52
2022/08/06 05:33:26;;;;;;;;;0.40;0.40;;;;;18.26;42.10;101947.28;4863681;29;45797;-54
2022/08/06 05:35:52;;;;;;;;;2.40;1.00;;;;;18.24;41.72;101941.97;4880394;29;45255;-52
2022/08/06 05:38:17;;;;;;;;;3.00;0.75;;;;;18.16;41.93;101922.84;4880492;29;45301;-54
2022/08/06 05:40:44;;;;;;;;;1.00;1.00;;;;;18.21;42.01;101934.09;4879994;29;46893;-52
2022/08/06 05:43:09;;;;;;;;;1.00;1.00;;;;;18.31;41.79;101944.66;4862835;29;45352;-52
2022/08/06 05:45:35;;;;;;;;;2.00;2.00;;;;;18.17;42.04;101946.75;4880325;29;45352;-53
2022/08/06 05:48:00;;;;;;;;;3.00;1.00;;;;;18.24;42.20;101947.50;4848304;29;45470;-53
2022/08/06 05:50:28;;;;;;;;;1.00;1.00;;;;;18.28;42.03;101948.75;4847476;29;47518;-53
2022/08/06 05:52:56;;;;;;;;;2.00;2.00;;;;;18.34;42.02;101951.66;4880380;29;45462;-56
2022/08/06 05:55:30;;;;;;;;;1.60;1.60;;;;;18.38;42.13;101947.34;4847836;29;45617;-54
2022/08/06 05:58:01;;;;;;;;;1.80;1.80;;;;;18.38;42.08;101956.53;4864614;29;45504;-56
2022/08/06 06:00:28;;;;;;;;;1.00;1.00;;;;;18.25;42.14;101940.03;4862925;29;46596;-56
2022/08/06 06:02:55;;;;;;;;;1.00;1.00;;;;;18.38;42.52;101955.66;4863634;29;45474;-51
2022/08/06 06:05:21;;;;;;;;;8.20;1.80;;;;;18.20;42.22;101940.72;4863121;29;45832;-54
2022/08/06 06:07:47;;;;;;;;;1.00;1.00;;;;;18.36;42.49;101955.06;4880084;29;45431;-55
2022/08/06 06:10:13;;;;;;;;;2.00;1.00;;;;;18.32;42.54;101953.81;4879776;29;46604;-53
2022/08/06 06:12:38;;;;;;;;;2.25;1.00;;;;;18.31;42.15;101953.00;4848258;29;45486;-52
2022/08/06 06:15:05;;;;;;;;;2.50;2.50;;;;;18.35;42.38;101968.09;4863432;29;45379;-54
2022/08/06 06:17:41;;;;;;;;;1.80;1.80;;;;;18.28;42.13;101954.31;4863747;29;45462;-54
2022/08/06 06:20:21;;;;;;;;;2.00;2.00;;;;;18.22;42.23;101941.34;4879930;29;46768;-54
2022/08/06 06:22:56;;;;;;;;;4.00;1.00;;;;;18.20;42.22;101932.38;4863604;29;45406;-54
2022/08/06 06:25:27;;;;;;;;;1.80;1.80;;;;;18.16;41.97;101933.97;4848550;29;45401;-51
2022/08/06 06:27:57;;;;;;;;;2.40;2.40;;;;;18.32;42.15;101957.47;4863763;29;45325;-54
2022/08/06 06:30:52;;;;;;;;;1.00;1.00;;;;;18.34;42.01;101957.22;4862930;29;45714;-57
2022/08/06 06:33:19;;;;;;;;;2.40;2.40;;;;;18.22;41.92;101924.69;4881555;29;45375;-55
2022/08/06 06:35:57;;;;;;;;;2.20;1.00;;;;;18.43;42.00;101962.22;4866312;29;45537;-56
2022/08/06 06:38:26;;;;;;;;;2.20;1.40;;;;;18.45;41.50;101959.19;4866542;29;45892;-53
2022/08/06 06:41:23;;;;;;;;;1.80;1.80;;;;;18.45;41.78;101959.19;4866208;29;45653;-54
2022/08/06 06:44:09;;;;;;;;;1.60;1.60;;;;;18.39;41.58;101957.34;4881711;29;45357;-56
2022/08/06 06:46:38;;;;;;;;;1.00;1.00;;;;;18.43;41.55;101966.94;4866219;29;45369;-53
2022/08/06 06:49:14;;;;;;;;;2.40;1.20;;;;;18.37;41.76;101967.88;4883221;29;45443;-55
2022/08/06 06:51:55;;;;;;;;;1.00;1.00;;;;;18.35;41.61;101939.47;4851360;29;46286;-56
2022/08/06 06:54:24;;;;;;;;;1.00;1.00;;;;;18.42;41.22;101949.41;4866234;29;45504;-57
2022/08/06 06:56:49;;;;;;;;;1.00;1.00;;;;;18.60;40.97;101966.25;4882949;29;45365;-51
2022/08/06 06:59:20;;;;;;;;;1.00;1.00;;;;;18.55;40.93;101939.16;4850858;29;45363;-54
2022/08/06 07:01:46;;;;;;;;;1.00;1.00;;;;;18.73;41.12;101971.63;4865395;29;45715;-54
2022/08/06 07:04:13;;;;;;;;;3.00;1.80;;;;;18.77;40.67;101967.28;4850831;29;45840;-53
2022/08/06 07:06:38;;;;;;;;;0.40;0.40;;;;;18.78;39.86;101971.75;4850581;29;45433;-56
2022/08/06 07:09:04;;;;;;;;;1.00;1.00;;;;;18.78;40.32;101977.31;4850193;29;45378;-55
2022/08/06 07:11:29;;;;;;;;;2.00;2.00;;;;;18.71;39.86;101954.34;4850371;29;46548;-56
2022/08/06 07:13:56;;;;;;;;;2.00;1.00;;;;;18.90;39.89;101982.06;4865859;29;45398;-56
2022/08/06 07:16:22;;;;;;;;;1.00;1.00;;;;;18.79;39.89;101961.50;4866200;29;45414;-56
2022/08/06 07:18:49;;;;;;;;;1.00;1.00;;;;;18.87;39.75;101977.84;4850313;29;45474;-55
2022/08/06 07:21:16;;;;;;;;;1.00;1.00;;;;;18.86;39.71;101958.59;4882512;29;45588;-55
2022/08/06 07:23:43;;;;;;;;;1.00;1.00;;;;;19.09;39.43;101994.00;4850325;29;45437;-54
2022/08/06 07:26:09;;;;;;;;;3.00;1.80;;;;;19.08;38.43;101990.38;4882601;29;45367;-56
2022/08/06 07:28:34;;;;;;;;;1.00;1.00;;;;;19.08;39.01;101981.16;4850609;29;45409;-53
2022/08/06 07:31:02;;;;;;;;;1.00;1.00;;;;;19.20;38.49;101986.75;4865480;29;45882;-54
2022/08/06 07:33:28;;;;;;;;;0.60;0.60;;;;;19.17;38.33;101996.44;4881463;29;45331;-54
2022/08/06 07:35:54;;;;;;;;;7.25;2.75;;;;;19.13;38.71;101970.19;4823357;29;45954;-56
2022/08/06 07:38:20;;;;;;;;;1.00;1.00;;;;;19.33;38.04;102003.22;4847284;29;45303;-55
2022/08/06 07:40:54;;;;;;;;;2.00;2.00;;;;;19.28;37.25;102000.31;4846552;29;45758;-56
2022/08/06 07:43:24;;;;;;;;;2.60;1.40;;;;;19.27;37.22;101976.38;4846759;29;45339;-52
2022/08/06 07:45:50;;;;;;;;;0.00;0.00;;;;;19.48;37.21;101993.56;4845988;29;45346;-56
2022/08/06 07:48:17;;;;;;;;;1.80;0.40;;;;;19.54;36.70;101983.38;4846902;29;45330;-52
2022/08/06 07:50:44;;;;;;;;;1.20;0.60;;;;;19.58;37.10;101979.03;4846623;29;46491;-56
2022/08/06 07:53:10;;;;;;;;;2.00;0.80;;;;;19.66;37.00;101995.38;4846795;29;45291;-52
2022/08/06 07:55:36;;;;;;;;;0.50;0.50;;;;;19.67;36.50;101991.50;4831470;29;45294;-52
2022/08/06 07:58:01;;;;;;;;;1.00;1.00;;;;;19.67;36.35;102002.63;4846844;29;46023;-55
2022/08/06 08:00:27;;;;;;;;;0.50;0.50;;;;;19.74;36.63;101992.19;4863290;29;45707;-58
2022/08/06 08:08:21;;;;;;;;;0.00;0.00;;;;;19.95;35.71;102000.19;4851794;29;45481;-56
2022/08/06 08:10:47;;;;;;;;;1.50;0.00;;;;;19.98;35.77;101991.34;4864500;29;46805;-56
2022/08/06 08:13:12;;;;;;;;;0.00;0.00;;;;;20.01;36.10;101996.44;4864629;29;45370;-55
2022/08/06 08:15:38;;;;;;;;;0.00;0.00;;;;;20.11;35.15;102005.00;4864970;29;45404;-53
2022/08/06 08:18:03;;;;;;;;;1.00;1.00;;;;;20.14;35.17;102003.69;4849416;29;45331;-55
2022/08/06 08:20:30;;;;;;;;;0.75;0.75;;;;;20.26;35.33;102009.22;4864583;29;46657;-52
2022/08/06 08:22:55;;;;;;;;;0.60;0.00;;;;;20.26;35.63;102009.22;4864666;29;45502;-57
2022/08/06 08:25:20;;;;;;;;;0.00;0.00;;;;;20.28;35.23;102007.88;4881522;29;45382;-56
2022/08/06 08:27:46;;;;;;;;;1.25;0.75;;;;;20.35;35.37;102004.09;4881229;29;45426;-51
2022/08/06 08:30:12;;;;;;;;;1.75;0.25;;;;;20.41;34.92;102003.97;4881527;29;46612;-55
2022/08/06 08:32:37;;;;;;;;;0.50;0.50;;;;;20.45;34.57;102007.94;4881000;29;45308;-52
2022/08/06 08:35:03;;;;;;;;;0.75;0.75;;;;;20.14;34.24;101956.31;4881091;29;45412;-52
2022/08/06 08:37:28;;;;;;;;;2.50;1.00;;;;;20.28;33.85;101976.38;4826121;29;46258;-54
2022/08/06 08:39:54;;;;;;;;;0.50;0.50;;;;;20.41;34.36;102011.47;4848133;29;46512;-56
2022/08/06 08:42:42;;;;;;;;;2.25;0.50;;;;;20.48;34.16;102000.19;4848690;29;45378;-56
2022/08/06 08:45:08;;;;;;;;;0.20;0.20;;;;;20.29;34.18;101964.13;4875168;29;45427;-58
2022/08/06 08:47:33;;;;;;;;;1.00;1.00;;;;;20.51;34.39;101985.75;4859173;29;45604;-55
2022/08/06 08:49:59;;;;;;;;;1.00;1.00;;;;;20.44;34.20;101961.63;4859154;29;46079;-53
2022/08/06 08:52:30;;;;;;;;;0.50;0.50;;;;;20.74;33.60;101989.53;4842606;29;45761;-54
2022/08/06 08:54:57;;;;;;;;;1.80;0.20;;;;;20.79;33.39;101978.44;4860122;29;45547;-50
2022/08/06 08:57:23;;;;;;;;;0.00;0.00;;;;;20.85;33.47;101975.53;4859770;29;45580;-52
2022/08/06 08:59:48;;;;;;;;;0.00;0.00;;;;;20.93;33.61;101982.66;4859503;29;46979;-56
2022/08/06 09:02:14;;;;;;;;;1.00;1.00;;;;;21.00;33.99;101979.69;4876642;29;45392;-56
2022/08/06 09:04:40;;;;;;;;;0.00;0.00;;;;;21.04;33.24;101974.44;4858753;29;45681;-55
2022/08/06 09:07:05;;;;;;;;;1.80;0.20;;;;;21.11;32.30;101980.69;4844501;29;45556;-58
2022/08/06 09:09:31;;;;;;;;;2.25;1.75;;;;;21.08;32.53;101981.22;4859025;29;45553;-52
2022/08/06 09:11:56;;;;;;;;;0.00;0.00;;;;;21.14;32.88;101985.78;4859513;29;45450;-55
2022/08/06 09:14:22;;;;;;;;;0.00;0.00;;;;;21.14;32.33;101980.22;4859860;29;45510;-56
2022/08/06 09:16:49;;;;;;;;;0.00;0.00;;;;;21.29;32.48;101987.97;4858984;29;45450;-56
2022/08/06 09:19:14;;;;;;;;;0.00;0.00;;;;;21.29;30.53;101981.56;4859980;29;46234;-59
2022/08/06 09:21:40;;;;;;;;;0.00;0.00;;;;;21.29;31.04;101973.19;4859439;29;45429;-59
2022/08/06 09:24:06;;;;;;;;;0.00;0.00;;;;;21.26;29.90;101966.16;4844170;29;45413;-58
2022/08/06 09:26:33;;;;;;;;;0.25;0.25;;;;;21.43;30.11;101985.69;4859991;29;45508;-59
2022/08/06 09:28:59;;;;;;;;;0.00;0.00;;;;;21.39;29.99;101976.13;4875285;29;46562;-59
2022/08/06 09:31:24;;;;;;;;;0.00;0.00;;;;;21.47;29.81;101992.47;4859150;29;45460;-58
2022/08/06 09:33:57;;;;;;;;;0.25;0.25;;;;;21.57;30.10;101991.78;4839405;29;45586;-57
2022/08/06 09:36:22;;;;;;;;;1.00;1.00;;;;;21.58;30.04;101981.41;4848015;29;45576;-59
2022/08/06 09:38:48;;;;;;;;;0.50;0.00;;;;;21.77;29.65;101999.63;4858553;29;45540;-60
2022/08/06 09:41:14;;;;;;;;;0.00;0.00;;;;;21.80;29.43;101992.66;4875363;29;45371;-59
2022/08/06 09:43:40;;;;;;;;;0.00;0.00;;;;;21.72;29.45;101979.97;4859345;29;45363;-58
2022/08/06 09:46:06;;;;;;;;;1.50;1.00;;;;;21.93;29.51;101997.06;4857875;29;46610;-59
2022/08/06 09:48:32;;;;;;;;;1.40;0.40;;;;;21.87;29.96;101965.38;4857583;29;45813;-56
2022/08/06 09:50:57;;;;;;;;;0.00;0.00;;;;;21.84;29.66;101960.31;4874245;29;45495;-56
2022/08/06 09:53:23;;;;;;;;;1.75;0.75;;;;;22.02;29.57;101987.09;4874573;29;45805;-55
2022/08/06 09:55:49;;;;;;;;;0.00;0.00;;;;;21.99;28.79;101984.81;4859153;29;45497;-57
2022/08/06 09:58:27;;;;;;;;;0.80;0.80;;;;;22.03;29.15;101985.13;4876067;29;46767;-58
2022/08/06 10:00:52;;;;;;;;;0.00;0.00;;;;;22.05;29.18;101986.56;4857345;29;45390;-58
2022/08/06 10:03:18;;;;;;;;;0.75;0.75;;;;;22.14;29.34;101986.13;4874516;29;45417;-60
2022/08/06 10:05:44;;;;;;;;;1.00;1.00;;;;;22.24;29.42;101977.84;4839228;29;45393;-60
2022/08/06 10:08:13;;;;;;;;;0.50;0.50;;;;;22.09;28.90;101963.72;4873796;29;46424;-56
2022/08/06 10:10:46;;;;;;;;;0.60;0.60;;;;;22.23;29.41;101972.53;4862190;29;45463;-58
2022/08/06 10:13:16;;;;;;;;;1.40;0.40;;;;;22.24;28.38;101963.06;4862389;29;45508;-53
2022/08/06 10:15:44;;;;;;;;;1.20;0.00;;;;;22.37;28.70;101972.97;4879269;29;45569;-57
2022/08/06 10:18:10;;;;;;;;;0.00;0.00;;;;;22.36;28.59;101968.50;4846125;29;45726;-54
2022/08/06 10:20:35;;;;;;;;;0.00;0.00;;;;;22.43;28.75;101974.72;4879100;29;45579;-56
2022/08/06 10:23:01;;;;;;;;;0.75;0.75;;;;;22.50;28.20;101977.31;4861813;29;45479;-56
2022/08/06 10:25:29;;;;;;;;;0.00;0.00;;;;;22.47;28.74;101959.13;4879528;29;45641;-56
2022/08/06 10:27:55;;;;;;;;;0.00;0.00;;;;;22.58;28.77;101974.06;4851545;28;46360;-54
2022/08/06 10:30:21;;;;;;;;;1.00;0.00;;;;;22.67;29.71;101969.69;4860518;29;46199;-55
2022/08/06 10:32:55;;;;;;;;;0.00;0.00;;;;;22.58;28.71;101938.53;4859170;29;45374;-56
2022/08/06 10:35:22;;;;;;;;;0.00;0.00;;;;;22.71;27.84;101954.06;4845331;29;45387;-56
2022/08/06 10:37:56;;;;;;;;;2.00;0.00;;;;;22.70;27.74;101968.31;4868281;29;45835;-52
2022/08/06 10:40:21;;;;;;;;;0.60;0.60;;;;;22.65;27.99;101959.88;4877054;29;45427;-55
2022/08/06 10:42:47;;;;;;;;;0.50;0.50;;;;;22.73;27.46;101962.19;4860434;29;45957;-52
2022/08/06 10:45:13;;;;;;;;;1.25;0.00;;;;;22.85;27.72;101965.66;4846437;29;45756;-52
2022/08/06 10:47:43;;;;;;;;;0.25;0.00;;;;;22.91;27.62;101955.38;4861743;29;45809;-54
2022/08/06 10:50:10;;;;;;;;;1.00;1.00;;;;;22.95;27.85;101950.91;4878604;29;45797;-55
2022/08/06 10:52:35;;;;;;;;;0.60;0.60;;;;;23.05;27.81;101952.94;4846762;29;45547;-55
2022/08/06 10:55:00;;;;;;;;;1.00;1.00;;;;;23.02;27.36;101950.69;4877522;29;45878;-55
2022/08/06 10:57:26;;;;;;;;;1.00;0.00;;;;;22.99;27.56;101940.00;4846158;29;46538;-56
2022/08/06 10:59:52;;;;;;;;;1.00;1.00;;;;;23.12;27.14;101950.75;4861473;29;45391;-57
2022/08/06 11:02:42;;;;;;;;;3.00;2.00;;;;;23.20;27.21;101945.78;4878466;29;45463;-57
2022/08/06 11:05:11;;;;;;;;;1.60;1.60;;;;;23.15;26.52;101936.22;4878591;29;45519;-55
2022/08/06 11:07:56;;;;;;;;;2.00;2.00;;;;;23.28;27.19;101948.09;4827183;29;47882;-56
2022/08/06 11:10:47;;;;;;;;;1.00;1.00;;;;;23.36;27.25;101946.75;4870677;29;45487;-57
2022/08/06 11:13:16;;;;;;;;;1.20;1.20;;;;;23.40;27.24;101933.91;4847686;29;45415;-57
2022/08/06 11:15:42;;;;;;;;;1.00;1.00;;;;;23.39;27.33;101935.88;4878548;29;45404;-57
2022/08/06 11:18:10;;;;;;;;;1.00;1.00;;;;;23.34;27.06;101913.44;4860279;29;45981;-58
2022/08/06 11:20:37;;;;;;;;;1.00;1.00;;;;;23.62;27.16;101935.69;4861402;29;45495;-57
2022/08/06 11:23:04;;;;;;;;;2.00;2.00;;;;;23.47;26.56;101894.47;4861649;29;45394;-56
2022/08/06 11:25:55;;;;;;;;;2.00;2.00;;;;;23.67;26.72;101916.13;4846486;29;45809;-53
2022/08/06 11:28:27;;;;;;;;;1.40;0.60;;;;;23.77;26.81;101938.59;4863572;29;46170;-59
2022/08/06 11:30:53;;;;;;;;;1.00;1.00;;;;;23.81;26.63;101924.88;4860255;29;45789;-54
2022/08/06 11:33:43;;;;;;;;;1.00;1.00;;;;;23.85;26.51;101917.59;4857585;29;45442;-59
2022/08/06 11:36:10;;;;;;;;;1.80;1.80;;;;;23.93;26.69;101911.47;4859636;29;45596;-55